sensor_id;sensor_type;location;lat;lon;timestamp;temperature;humidity
4356;DHT22;64374;51.482;7.408;2023-04-03T00:01:26;10.00;99.90
4356;DHT22;64374;51.482;7.408;2023-04-03T00:03:59;10.00;99.90
4356;DHT22;64374;51.482;7.408;2023-04-03T00:06:28;9.80;99.90
4356;DHT22;64374;51.482;7.408;2023-04-03T00:08:56;9.70;99.90
4356;DHT22;64374;51.482;7.408;2023-04-03T00:11:27;9.90;99.90
4356;DHT22;64374;51.482;7.408;2023-04-03T00:13:55;9.80;99.90
4356;DHT22;64374;51.482;7.408;2023-04-03T00:16:24;9.90;99.90
4356;DHT22;64374;51.482;7.408;2023-04-03T00:18:52;10.10;99.90
4356;DHT22;64374;51.482;7.408;2023-04-03T00:21:22;10.00;99.90
4356;DHT22;64374;51.482;7.408;2023-04-03T00:23:51;9.90;99.90
4356;DHT22;64374;51.482;7.408;2023-04-03T00:26:20;9.70;99.90
4356;DHT22;64374;51.482;7.408;2023-04-03T00:28:48;9.80;99.90
4356;DHT22;64374;51.482;7.408;2023-04-03T00:31:17;9.80;99.90
4356;DHT22;64374;51.482;7.408;2023-04-03T00:33:45;9.80;99.90
4356;DHT22;64374;51.482;7.408;2023-04-03T00:36:14;9.80;99.90
4356;DHT22;64374;51.482;7.408;2023-04-03T00:38:44;9.60;99.90
4356;DHT22;64374;51.482;7.408;2023-04-03T00:41:13;9.60;99.90
4356;DHT22;64374;51.482;7.408;2023-04-03T00:43:41;9.70;99.90
4356;DHT22;64374;51.482;7.408;2023-04-03T00:46:09;9.60;99.90
4356;DHT22;64374;51.482;7.408;2023-04-03T00:48:40;9.70;99.90
4356;DHT22;64374;51.482;7.408;2023-04-03T00:51:13;9.60;99.90
4356;DHT22;64374;51.482;7.408;2023-04-03T00:53:46;9.40;99.90
4356;DHT22;64374;51.482;7.408;2023-04-03T00:56:18;9.40;99.90
4356;DHT22;64374;51.482;7.408;2023-04-03T00:58:52;9.40;99.90
4356;DHT22;64374;51.482;7.408;2023-04-03T01:01:24;9.60;99.90
4356;DHT22;64374;51.482;7.408;2023-04-03T01:03:54;9.50;99.90
4356;DHT22;64374;51.482;7.408;2023-04-03T01:06:27;9.70;99.90
4356;DHT22;64374;51.482;7.408;2023-04-03T01:09:05;9.50;99.90
4356;DHT22;64374;51.482;7.408;2023-04-03T01:11:35;9.60;99.90
4356;DHT22;64374;51.482;7.408;2023-04-03T01:14:04;9.50;99.90
4356;DHT22;64374;51.482;7.408;2023-04-03T01:16:33;9.60;99.90
4356;DHT22;64374;51.482;7.408;2023-04-03T01:19:03;9.60;99.90
4356;DHT22;64374;51.482;7.408;2023-04-03T01:21:59;9.60;99.90
4356;DHT22;64374;51.482;7.408;2023-04-03T01:24:34;9.50;99.90
4356;DHT22;64374;51.482;7.408;2023-04-03T01:27:06;9.50;99.90
4356;DHT22;64374;51.482;7.408;2023-04-03T01:29:37;9.40;99.90
4356;DHT22;64374;51.482;7.408;2023-04-03T01:32:07;9.40;99.90
4356;DHT22;64374;51.482;7.408;2023-04-03T01:34:36;9.40;99.90
4356;DHT22;64374;51.482;7.408;2023-04-03T01:37:05;9.50;99.90
4356;DHT22;64374;51.482;7.408;2023-04-03T01:39:34;9.50;99.90
4356;DHT22;64374;51.482;7.408;2023-04-03T01:42:02;9.60;99.90
4356;DHT22;64374;51.482;7.408;2023-04-03T01:44:37;9.50;99.90
4356;DHT22;64374;51.482;7.408;2023-04-03T01:47:07;9.60;99.90
4356;DHT22;64374;51.482;7.408;2023-04-03T01:49:37;9.60;99.90
4356;DHT22;64374;51.482;7.408;2023-04-03T01:52:06;9.40;99.90
4356;DHT22;64374;51.482;7.408;2023-04-03T01:54:34;9.40;99.90
4356;DHT22;64374;51.482;7.408;2023-04-03T01:57:05;9.40;99.90
4356;DHT22;64374;51.482;7.408;2023-04-03T01:59:35;9.30;99.90
4356;DHT22;64374;51.482;7.408;2023-04-03T02:02:03;9.50;99.90
4356;DHT22;64374;51.482;7.408;2023-04-03T02:04:33;9.40;99.90
4356;DHT22;64374;51.482;7.408;2023-04-03T02:07:01;9.30;99.90
4356;DHT22;64374;51.482;7.408;2023-04-03T02:09:30;9.20;99.90
4356;DHT22;64374;51.482;7.408;2023-04-03T02:11:59;9.20;99.90
4356;DHT22;64374;51.482;7.408;2023-04-03T02:14:28;9.30;99.90
4356;DHT22;64374;51.482;7.408;2023-04-03T02:16:57;9.10;99.90
4356;DHT22;64374;51.482;7.408;2023-04-03T02:19:26;9.20;99.90
4356;DHT22;64374;51.482;7.408;2023-04-03T02:21:55;9.30;99.90
4356;DHT22;64374;51.482;7.408;2023-04-03T02:24:24;9.10;99.90
4356;DHT22;64374;51.482;7.408;2023-04-03T02:26:52;9.30;99.90
4356;DHT22;64374;51.482;7.408;2023-04-03T02:29:20;9.30;99.90
4356;DHT22;64374;51.482;7.408;2023-04-03T02:31:49;9.30;99.90
4356;DHT22;64374;51.482;7.408;2023-04-03T02:34:18;9.10;99.90
4356;DHT22;64374;51.482;7.408;2023-04-03T02:36:47;9.20;99.90
4356;DHT22;64374;51.482;7.408;2023-04-03T02:39:20;9.20;99.90
4356;DHT22;64374;51.482;7.408;2023-04-03T02:41:49;9.20;99.90
4356;DHT22;64374;51.482;7.408;2023-04-03T02:44:22;9.10;99.90
4356;DHT22;64374;51.482;7.408;2023-04-03T02:46:52;9.10;99.90
4356;DHT22;64374;51.482;7.408;2023-04-03T02:49:20;9.10;99.90
4356;DHT22;64374;51.482;7.408;2023-04-03T02:51:48;9.00;99.90
4356;DHT22;64374;51.482;7.408;2023-04-03T02:54:19;8.90;99.90
4356;DHT22;64374;51.482;7.408;2023-04-03T02:56:51;8.90;99.90
4356;DHT22;64374;51.482;7.408;2023-04-03T02:59:20;9.00;99.90
4356;DHT22;64374;51.482;7.408;2023-04-03T03:01:48;9.10;99.90
4356;DHT22;64374;51.482;7.408;2023-04-03T03:04:17;8.90;99.90
4356;DHT22;64374;51.482;7.408;2023-04-03T03:06:46;8.90;99.90
4356;DHT22;64374;51.482;7.408;2023-04-03T03:09:14;9.00;99.90
4356;DHT22;64374;51.482;7.408;2023-04-03T03:11:44;8.90;99.90
4356;DHT22;64374;51.482;7.408;2023-04-03T03:14:13;8.90;99.90
4356;DHT22;64374;51.482;7.408;2023-04-03T03:16:42;8.60;99.90
4356;DHT22;64374;51.482;7.408;2023-04-03T03:19:11;8.90;99.90
4356;DHT22;64374;51.482;7.408;2023-04-03T03:21:40;8.90;99.90
4356;DHT22;64374;51.482;7.408;2023-04-03T03:24:08;8.80;99.90
4356;DHT22;64374;51.482;7.408;2023-04-03T03:26:37;8.90;99.90
4356;DHT22;64374;51.482;7.408;2023-04-03T03:29:06;8.80;99.90
4356;DHT22;64374;51.482;7.408;2023-04-03T03:31:35;8.90;99.90
4356;DHT22;64374;51.482;7.408;2023-04-03T03:34:03;8.60;99.90
4356;DHT22;64374;51.482;7.408;2023-04-03T03:36:31;8.60;99.90
4356;DHT22;64374;51.482;7.408;2023-04-03T03:39:00;8.60;99.90
4356;DHT22;64374;51.482;7.408;2023-04-03T03:41:28;8.50;99.90
4356;DHT22;64374;51.482;7.408;2023-04-03T03:43:57;8.70;99.90
4356;DHT22;64374;51.482;7.408;2023-04-03T03:46:29;8.60;99.90
4356;DHT22;64374;51.482;7.408;2023-04-03T03:48:58;8.80;99.90
4356;DHT22;64374;51.482;7.408;2023-04-03T03:51:26;8.80;99.90
4356;DHT22;64374;51.482;7.408;2023-04-03T03:53:55;8.70;99.90
4356;DHT22;64374;51.482;7.408;2023-04-03T03:56:24;8.90;99.90
4356;DHT22;64374;51.482;7.408;2023-04-03T03:58:53;9.00;99.90
4356;DHT22;64374;51.482;7.408;2023-04-03T04:01:22;8.70;99.90
4356;DHT22;64374;51.482;7.408;2023-04-03T04:03:53;8.80;99.90
4356;DHT22;64374;51.482;7.408;2023-04-03T04:06:28;8.70;99.90
4356;DHT22;64374;51.482;7.408;2023-04-03T04:09:00;8.50;99.90
4356;DHT22;64374;51.482;7.408;2023-04-03T04:11:29;8.60;99.90
4356;DHT22;64374;51.482;7.408;2023-04-03T04:14:01;8.80;99.90
4356;DHT22;64374;51.482;7.408;2023-04-03T04:16:30;8.90;99.90
4356;DHT22;64374;51.482;7.408;2023-04-03T04:19:06;8.70;99.90
4356;DHT22;64374;51.482;7.408;2023-04-03T04:21:36;8.50;99.90
4356;DHT22;64374;51.482;7.408;2023-04-03T04:24:06;8.40;99.90
4356;DHT22;64374;51.482;7.408;2023-04-03T04:26:37;8.80;99.90
4356;DHT22;64374;51.482;7.408;2023-04-03T04:29:10;8.80;99.90
4356;DHT22;64374;51.482;7.408;2023-04-03T04:31:38;8.70;99.90
4356;DHT22;64374;51.482;7.408;2023-04-03T04:34:08;8.70;99.90
4356;DHT22;64374;51.482;7.408;2023-04-03T04:36:37;8.70;99.90
4356;DHT22;64374;51.482;7.408;2023-04-03T04:39:06;8.60;99.90
4356;DHT22;64374;51.482;7.408;2023-04-03T04:41:35;8.50;99.90
4356;DHT22;64374;51.482;7.408;2023-04-03T04:44:05;8.60;99.90
4356;DHT22;64374;51.482;7.408;2023-04-03T04:46:35;8.30;99.90
4356;DHT22;64374;51.482;7.408;2023-04-03T04:49:05;8.40;99.90
4356;DHT22;64374;51.482;7.408;2023-04-03T04:51:35;8.40;99.90
4356;DHT22;64374;51.482;7.408;2023-04-03T04:54:19;8.40;99.90
4356;DHT22;64374;51.482;7.408;2023-04-03T04:56:48;8.40;99.90
4356;DHT22;64374;51.482;7.408;2023-04-03T04:59:17;8.20;99.90
4356;DHT22;64374;51.482;7.408;2023-04-03T05:01:48;8.30;99.90
4356;DHT22;64374;51.482;7.408;2023-04-03T05:04:17;8.30;99.90
4356;DHT22;64374;51.482;7.408;2023-04-03T05:06:52;8.20;99.90
4356;DHT22;64374;51.482;7.408;2023-04-03T05:09:23;8.20;99.90
4356;DHT22;64374;51.482;7.408;2023-04-03T05:11:53;8.20;99.90
4356;DHT22;64374;51.482;7.408;2023-04-03T05:14:25;8.20;99.90
4356;DHT22;64374;51.482;7.408;2023-04-03T05:16:57;8.30;99.90
4356;DHT22;64374;51.482;7.408;2023-04-03T05:19:28;8.10;99.90
4356;DHT22;64374;51.482;7.408;2023-04-03T05:22:02;8.20;99.90
4356;DHT22;64374;51.482;7.408;2023-04-03T05:24:30;8.00;99.90
4356;DHT22;64374;51.482;7.408;2023-04-03T05:26:59;8.00;99.90
4356;DHT22;64374;51.482;7.408;2023-04-03T05:29:28;8.30;99.90
4356;DHT22;64374;51.482;7.408;2023-04-03T05:31:59;8.30;99.90
4356;DHT22;64374;51.482;7.408;2023-04-03T05:34:27;8.50;99.90
4356;DHT22;64374;51.482;7.408;2023-04-03T05:36:56;8.40;99.90
4356;DHT22;64374;51.482;7.408;2023-04-03T05:39:28;8.40;99.90
4356;DHT22;64374;51.482;7.408;2023-04-03T05:42:00;8.20;99.90
4356;DHT22;64374;51.482;7.408;2023-04-03T05:44:30;8.20;99.90
4356;DHT22;64374;51.482;7.408;2023-04-03T05:46:58;7.90;99.90
4356;DHT22;64374;51.482;7.408;2023-04-03T05:49:26;7.90;99.90
4356;DHT22;64374;51.482;7.408;2023-04-03T05:51:55;7.90;99.90
4356;DHT22;64374;51.482;7.408;2023-04-03T05:54:30;8.00;99.90
4356;DHT22;64374;51.482;7.408;2023-04-03T05:57:08;8.00;99.90
4356;DHT22;64374;51.482;7.408;2023-04-03T05:59:36;8.00;99.90
4356;DHT22;64374;51.482;7.408;2023-04-03T06:02:04;8.00;99.90
4356;DHT22;64374;51.482;7.408;2023-04-03T06:04:33;8.20;99.90
4356;DHT22;64374;51.482;7.408;2023-04-03T06:07:01;8.40;99.90
4356;DHT22;64374;51.482;7.408;2023-04-03T06:09:31;8.10;99.90
4356;DHT22;64374;51.482;7.408;2023-04-03T06:12:00;8.20;99.90
4356;DHT22;64374;51.482;7.408;2023-04-03T06:14:30;7.90;99.90
4356;DHT22;64374;51.482;7.408;2023-04-03T06:16:58;8.10;99.90
4356;DHT22;64374;51.482;7.408;2023-04-03T06:19:27;8.00;99.90
4356;DHT22;64374;51.482;7.408;2023-04-03T06:21:57;8.00;99.90
4356;DHT22;64374;51.482;7.408;2023-04-03T06:24:25;8.30;99.90
4356;DHT22;64374;51.482;7.408;2023-04-03T06:26:54;8.20;99.90
4356;DHT22;64374;51.482;7.408;2023-04-03T06:29:23;8.20;99.90
4356;DHT22;64374;51.482;7.408;2023-04-03T06:31:52;7.90;99.90
4356;DHT22;64374;51.482;7.408;2023-04-03T06:34:21;8.00;99.90
4356;DHT22;64374;51.482;7.408;2023-04-03T06:36:49;8.20;99.90
4356;DHT22;64374;51.482;7.408;2023-04-03T06:39:19;8.20;99.90
4356;DHT22;64374;51.482;7.408;2023-04-03T06:41:49;8.10;99.90
4356;DHT22;64374;51.482;7.408;2023-04-03T06:44:27;8.20;99.90
4356;DHT22;64374;51.482;7.408;2023-04-03T06:46:56;8.20;99.90
4356;DHT22;64374;51.482;7.408;2023-04-03T06:49:26;8.10;99.90
4356;DHT22;64374;51.482;7.408;2023-04-03T06:51:55;8.10;99.90
4356;DHT22;64374;51.482;7.408;2023-04-03T06:54:23;7.80;99.90
4356;DHT22;64374;51.482;7.408;2023-04-03T06:56:52;7.90;99.90
4356;DHT22;64374;51.482;7.408;2023-04-03T06:59:20;7.90;99.90
4356;DHT22;64374;51.482;7.408;2023-04-03T07:01:50;8.00;99.90
4356;DHT22;64374;51.482;7.408;2023-04-03T07:04:20;8.10;99.90
4356;DHT22;64374;51.482;7.408;2023-04-03T07:06:48;8.10;99.90
4356;DHT22;64374;51.482;7.408;2023-04-03T07:09:19;8.00;99.90
4356;DHT22;64374;51.482;7.408;2023-04-03T07:11:48;8.10;99.90
4356;DHT22;64374;51.482;7.408;2023-04-03T07:14:16;8.10;99.90
4356;DHT22;64374;51.482;7.408;2023-04-03T07:16:50;8.40;99.90
4356;DHT22;64374;51.482;7.408;2023-04-03T07:19:18;8.40;99.90
4356;DHT22;64374;51.482;7.408;2023-04-03T07:21:47;8.40;99.90
4356;DHT22;64374;51.482;7.408;2023-04-03T07:24:15;8.50;99.90
4356;DHT22;64374;51.482;7.408;2023-04-03T07:26:43;8.60;99.90
4356;DHT22;64374;51.482;7.408;2023-04-03T07:29:13;8.40;99.90
4356;DHT22;64374;51.482;7.408;2023-04-03T07:31:41;8.40;99.90
4356;DHT22;64374;51.482;7.408;2023-04-03T07:34:13;8.30;99.90
4356;DHT22;64374;51.482;7.408;2023-04-03T07:36:42;8.30;99.90
4356;DHT22;64374;51.482;7.408;2023-04-03T07:39:10;8.20;99.90
4356;DHT22;64374;51.482;7.408;2023-04-03T07:41:38;8.20;99.90
4356;DHT22;64374;51.482;7.408;2023-04-03T07:44:07;8.30;99.90
4356;DHT22;64374;51.482;7.408;2023-04-03T07:46:37;8.30;99.90
4356;DHT22;64374;51.482;7.408;2023-04-03T07:49:05;8.30;99.90
4356;DHT22;64374;51.482;7.408;2023-04-03T07:51:35;8.40;99.90
4356;DHT22;64374;51.482;7.408;2023-04-03T07:54:03;8.70;99.90
4356;DHT22;64374;51.482;7.408;2023-04-03T07:56:31;8.80;99.90
4356;DHT22;64374;51.482;7.408;2023-04-03T07:59:01;8.80;99.90
4356;DHT22;64374;51.482;7.408;2023-04-03T08:01:29;8.90;99.90
4356;DHT22;64374;51.482;7.408;2023-04-03T08:03:59;9.00;99.90
4356;DHT22;64374;51.482;7.408;2023-04-03T08:06:28;8.90;99.90
4356;DHT22;64374;51.482;7.408;2023-04-03T08:09:14;8.80;99.90
4356;DHT22;64374;51.482;7.408;2023-04-03T08:11:43;8.70;99.90
4356;DHT22;64374;51.482;7.408;2023-04-03T08:14:11;8.60;99.90
4356;DHT22;64374;51.482;7.408;2023-04-03T08:16:45;8.30;99.90
4356;DHT22;64374;51.482;7.408;2023-04-03T08:19:14;8.30;99.90
4356;DHT22;64374;51.482;7.408;2023-04-03T08:21:54;8.40;99.90
4356;DHT22;64374;51.482;7.408;2023-04-03T08:24:26;8.70;99.90
4356;DHT22;64374;51.482;7.408;2023-04-03T08:26:54;8.80;99.90
4356;DHT22;64374;51.482;7.408;2023-04-03T08:29:24;9.00;99.90
4356;DHT22;64374;51.482;7.408;2023-04-03T08:31:52;9.20;99.90
4356;DHT22;64374;51.482;7.408;2023-04-03T08:34:20;9.10;99.90
4356;DHT22;64374;51.482;7.408;2023-04-03T08:36:49;9.30;99.90
4356;DHT22;64374;51.482;7.408;2023-04-03T08:39:17;9.20;99.90
4356;DHT22;64374;51.482;7.408;2023-04-03T08:41:47;8.90;99.90
4356;DHT22;64374;51.482;7.408;2023-04-03T08:44:23;8.60;99.90
4356;DHT22;64374;51.482;7.408;2023-04-03T08:47:07;8.40;99.90
4356;DHT22;64374;51.482;7.408;2023-04-03T08:49:41;8.30;99.90
4356;DHT22;64374;51.482;7.408;2023-04-03T08:52:17;8.30;99.90
4356;DHT22;64374;51.482;7.408;2023-04-03T08:54:50;8.30;99.90
4356;DHT22;64374;51.482;7.408;2023-04-03T08:57:28;8.10;99.90
4356;DHT22;64374;51.482;7.408;2023-04-03T08:59:58;8.00;99.90
4356;DHT22;64374;51.482;7.408;2023-04-03T09:02:31;8.00;99.90
4356;DHT22;64374;51.482;7.408;2023-04-03T09:05:02;8.30;99.90
4356;DHT22;64374;51.482;7.408;2023-04-03T09:07:35;8.40;99.90
4356;DHT22;64374;51.482;7.408;2023-04-03T09:10:06;8.50;99.90
4356;DHT22;64374;51.482;7.408;2023-04-03T09:12:39;8.50;99.90
4356;DHT22;64374;51.482;7.408;2023-04-03T09:15:15;8.60;99.90
4356;DHT22;64374;51.482;7.408;2023-04-03T09:17:59;8.60;99.90
4356;DHT22;64374;51.482;7.408;2023-04-03T09:20:39;8.60;99.90
4356;DHT22;64374;51.482;7.408;2023-04-03T09:23:18;8.70;99.90
4356;DHT22;64374;51.482;7.408;2023-04-03T09:25:48;8.80;99.90
4356;DHT22;64374;51.482;7.408;2023-04-03T09:28:19;8.90;99.90
4356;DHT22;64374;51.482;7.408;2023-04-03T09:30:47;9.00;99.90
4356;DHT22;64374;51.482;7.408;2023-04-03T09:33:17;8.90;99.90
4356;DHT22;64374;51.482;7.408;2023-04-03T09:35:45;8.90;99.90
4356;DHT22;64374;51.482;7.408;2023-04-03T09:38:18;9.00;99.90
4356;DHT22;64374;51.482;7.408;2023-04-03T09:40:48;9.30;99.90
4356;DHT22;64374;51.482;7.408;2023-04-03T09:43:25;9.50;99.90
4356;DHT22;64374;51.482;7.408;2023-04-03T09:45:53;9.50;99.90
4356;DHT22;64374;51.482;7.408;2023-04-03T09:48:24;9.30;99.90
4356;DHT22;64374;51.482;7.408;2023-04-03T09:50:57;9.20;99.90
4356;DHT22;64374;51.482;7.408;2023-04-03T09:53:44;9.30;99.90
4356;DHT22;64374;51.482;7.408;2023-04-03T09:56:21;9.60;99.90
4356;DHT22;64374;51.482;7.408;2023-04-03T09:59:13;9.60;99.90
4356;DHT22;64374;51.482;7.408;2023-04-03T10:01:57;9.60;99.90
4356;DHT22;64374;51.482;7.408;2023-04-03T10:04:37;9.60;99.90
4356;DHT22;64374;51.482;7.408;2023-04-03T10:07:28;9.70;99.90
4356;DHT22;64374;51.482;7.408;2023-04-03T10:10:01;9.70;99.90
4356;DHT22;64374;51.482;7.408;2023-04-03T10:12:31;9.80;99.90
4356;DHT22;64374;51.482;7.408;2023-04-03T10:15:01;10.00;99.90
4356;DHT22;64374;51.482;7.408;2023-04-03T10:17:38;10.10;99.90
4356;DHT22;64374;51.482;7.408;2023-04-03T10:20:23;9.90;99.90
4356;DHT22;64374;51.482;7.408;2023-04-03T10:23:05;9.80;99.90
4356;DHT22;64374;51.482;7.408;2023-04-03T10:25:42;10.00;99.90
4356;DHT22;64374;51.482;7.408;2023-04-03T10:28:17;10.00;99.90
4356;DHT22;64374;51.482;7.408;2023-04-03T10:30:55;10.10;99.90
4356;DHT22;64374;51.482;7.408;2023-04-03T10:33:36;10.30;99.90
4356;DHT22;64374;51.482;7.408;2023-04-03T10:36:12;10.20;99.90
4356;DHT22;64374;51.482;7.408;2023-04-03T10:38:52;10.40;99.90
4356;DHT22;64374;51.482;7.408;2023-04-03T10:41:32;10.60;99.90
4356;DHT22;64374;51.482;7.408;2023-04-03T10:44:14;10.70;99.90
4356;DHT22;64374;51.482;7.408;2023-04-03T10:46:48;10.80;99.90
4356;DHT22;64374;51.482;7.408;2023-04-03T10:49:26;10.80;99.90
4356;DHT22;64374;51.482;7.408;2023-04-03T10:52:01;10.80;98.90
4356;DHT22;64374;51.482;7.408;2023-04-03T10:54:38;10.70;98.10
4356;DHT22;64374;51.482;7.408;2023-04-03T10:57:10;10.70;97.10
4356;DHT22;64374;51.482;7.408;2023-04-03T10:59:44;10.70;96.60
4356;DHT22;64374;51.482;7.408;2023-04-03T11:02:19;11.00;97.90
4356;DHT22;64374;51.482;7.408;2023-04-03T11:04:55;11.10;99.50
4356;DHT22;64374;51.482;7.408;2023-04-03T11:07:28;11.10;99.70
4356;DHT22;64374;51.482;7.408;2023-04-03T11:10:02;11.30;99.90
4356;DHT22;64374;51.482;7.408;2023-04-03T11:12:38;11.40;99.90
4356;DHT22;64374;51.482;7.408;2023-04-03T11:15:12;11.30;98.90
4356;DHT22;64374;51.482;7.408;2023-04-03T11:17:46;11.50;99.90
4356;DHT22;64374;51.482;7.408;2023-04-03T11:20:20;11.80;99.90
4356;DHT22;64374;51.482;7.408;2023-04-03T11:23:00;12.10;99.90
4356;DHT22;64374;51.482;7.408;2023-04-03T11:25:32;12.40;99.90
4356;DHT22;64374;51.482;7.408;2023-04-03T11:28:04;12.30;96.40
4356;DHT22;64374;51.482;7.408;2023-04-03T11:30:38;12.10;95.00
4356;DHT22;64374;51.482;7.408;2023-04-03T11:36:17;12.30;94.20
4356;DHT22;64374;51.482;7.408;2023-04-03T11:39:05;12.50;95.20
4356;DHT22;64374;51.482;7.408;2023-04-03T11:41:36;12.50;93.90
4356;DHT22;64374;51.482;7.408;2023-04-03T11:44:32;12.40;92.60
4356;DHT22;64374;51.482;7.408;2023-04-03T11:47:02;12.50;91.60
4356;DHT22;64374;51.482;7.408;2023-04-03T11:49:50;12.50;91.00
4356;DHT22;64374;51.482;7.408;2023-04-03T11:58:31;12.60;91.70
4356;DHT22;64374;51.482;7.408;2023-04-03T12:01:08;12.50;90.10
4356;DHT22;64374;51.482;7.408;2023-04-03T12:06:48;12.50;90.00
4356;DHT22;64374;51.482;7.408;2023-04-03T12:09:26;12.50;89.00
4356;DHT22;64374;51.482;7.408;2023-04-03T12:11:56;12.60;88.10
4356;DHT22;64374;51.482;7.408;2023-04-03T12:14:28;12.60;86.70
4356;DHT22;64374;51.482;7.408;2023-04-03T12:16:57;12.70;86.60
4356;DHT22;64374;51.482;7.408;2023-04-03T12:19:35;12.70;86.70
4356;DHT22;64374;51.482;7.408;2023-04-03T12:22:14;12.70;85.80
4356;DHT22;64374;51.482;7.408;2023-04-03T12:24:43;12.60;86.00
4356;DHT22;64374;51.482;7.408;2023-04-03T12:27:22;12.60;83.30
4356;DHT22;64374;51.482;7.408;2023-04-03T12:29:58;12.60;82.40
4356;DHT22;64374;51.482;7.408;2023-04-03T12:32:40;12.70;82.90
4356;DHT22;64374;51.482;7.408;2023-04-03T12:35:37;13.10;84.30
4356;DHT22;64374;51.482;7.408;2023-04-03T12:38:32;13.20;82.20
4356;DHT22;64374;51.482;7.408;2023-04-03T12:41:18;13.00;80.70
4356;DHT22;64374;51.482;7.408;2023-04-03T12:44:07;12.90;82.10
4356;DHT22;64374;51.482;7.408;2023-04-03T12:46:44;12.50;80.70
4356;DHT22;64374;51.482;7.408;2023-04-03T12:49:35;12.60;81.80
4356;DHT22;64374;51.482;7.408;2023-04-03T12:52:12;12.90;81.20
4356;DHT22;64374;51.482;7.408;2023-04-03T12:54:45;12.80;79.40
4356;DHT22;64374;51.482;7.408;2023-04-03T12:57:18;12.80;80.50
4356;DHT22;64374;51.482;7.408;2023-04-03T12:59:47;13.10;81.50
4356;DHT22;64374;51.482;7.408;2023-04-03T13:02:25;13.30;82.60
4356;DHT22;64374;51.482;7.408;2023-04-03T13:04:57;13.50;80.40
4356;DHT22;64374;51.482;7.408;2023-04-03T13:07:29;13.40;80.90
4356;DHT22;64374;51.482;7.408;2023-04-03T13:10:09;13.40;80.00
4356;DHT22;64374;51.482;7.408;2023-04-03T13:12:49;13.60;81.10
4356;DHT22;64374;51.482;7.408;2023-04-03T13:15:20;13.40;77.50
4356;DHT22;64374;51.482;7.408;2023-04-03T13:17:51;13.50;79.60
4356;DHT22;64374;51.482;7.408;2023-04-03T13:20:24;13.70;80.00
4356;DHT22;64374;51.482;7.408;2023-04-03T13:22:57;13.90;79.20
4356;DHT22;64374;51.482;7.408;2023-04-03T13:25:29;13.80;79.70
4356;DHT22;64374;51.482;7.408;2023-04-03T13:27:59;13.30;75.40
4356;DHT22;64374;51.482;7.408;2023-04-03T13:30:55;13.50;78.80
4356;DHT22;64374;51.482;7.408;2023-04-03T13:33:27;13.80;79.70
4356;DHT22;64374;51.482;7.408;2023-04-03T13:35:57;13.80;80.00
4356;DHT22;64374;51.482;7.408;2023-04-03T13:38:30;13.90;80.00
4356;DHT22;64374;51.482;7.408;2023-04-03T13:41:02;14.10;80.70
4356;DHT22;64374;51.482;7.408;2023-04-03T13:43:33;14.10;79.20
4356;DHT22;64374;51.482;7.408;2023-04-03T13:46:20;14.20;79.90
4356;DHT22;64374;51.482;7.408;2023-04-03T13:48:53;14.50;81.70
4356;DHT22;64374;51.482;7.408;2023-04-03T13:51:24;14.60;80.70
4356;DHT22;64374;51.482;7.408;2023-04-03T13:53:56;14.40;78.50
4356;DHT22;64374;51.482;7.408;2023-04-03T13:56:30;14.50;78.90
4356;DHT22;64374;51.482;7.408;2023-04-03T13:59:04;14.30;76.30
4356;DHT22;64374;51.482;7.408;2023-04-03T14:01:40;14.10;76.70
4356;DHT22;64374;51.482;7.408;2023-04-03T14:04:15;14.30;77.60
4356;DHT22;64374;51.482;7.408;2023-04-03T14:06:44;14.70;77.80
4356;DHT22;64374;51.482;7.408;2023-04-03T14:09:12;15.00;75.20
4356;DHT22;64374;51.482;7.408;2023-04-03T14:11:43;15.10;72.20
4356;DHT22;64374;51.482;7.408;2023-04-03T14:14:14;15.00;70.90
4356;DHT22;64374;51.482;7.408;2023-04-03T14:16:46;15.10;73.60
4356;DHT22;64374;51.482;7.408;2023-04-03T14:19:21;15.30;73.90
4356;DHT22;64374;51.482;7.408;2023-04-03T14:21:50;15.60;83.70
4356;DHT22;64374;51.482;7.408;2023-04-03T14:24:20;15.70;78.60
4356;DHT22;64374;51.482;7.408;2023-04-03T14:26:49;15.80;86.60
4356;DHT22;64374;51.482;7.408;2023-04-03T14:29:19;15.90;81.30
4356;DHT22;64374;51.482;7.408;2023-04-03T14:31:51;15.80;72.40
4356;DHT22;64374;51.482;7.408;2023-04-03T14:34:38;15.60;71.80
4356;DHT22;64374;51.482;7.408;2023-04-03T14:37:11;15.60;70.10
4356;DHT22;64374;51.482;7.408;2023-04-03T14:39:40;15.40;69.00
4356;DHT22;64374;51.482;7.408;2023-04-03T14:42:12;15.20;69.70
4356;DHT22;64374;51.482;7.408;2023-04-03T14:44:41;15.00;71.00
4356;DHT22;64374;51.482;7.408;2023-04-03T14:47:11;15.10;71.00
4356;DHT22;64374;51.482;7.408;2023-04-03T14:49:58;15.20;72.70
4356;DHT22;64374;51.482;7.408;2023-04-03T14:52:30;15.40;72.30
4356;DHT22;64374;51.482;7.408;2023-04-03T14:55:00;15.30;70.00
4356;DHT22;64374;51.482;7.408;2023-04-03T14:57:29;15.10;70.90
4356;DHT22;64374;51.482;7.408;2023-04-03T14:59:59;15.20;71.40
4356;DHT22;64374;51.482;7.408;2023-04-03T15:02:30;15.20;71.70
4356;DHT22;64374;51.482;7.408;2023-04-03T15:05:03;15.30;69.80
4356;DHT22;64374;51.482;7.408;2023-04-03T15:07:34;15.20;69.10
4356;DHT22;64374;51.482;7.408;2023-04-03T15:10:14;15.20;70.30
4356;DHT22;64374;51.482;7.408;2023-04-03T15:12:44;15.40;71.00
4356;DHT22;64374;51.482;7.408;2023-04-03T15:15:15;14.90;66.80
4356;DHT22;64374;51.482;7.408;2023-04-03T15:17:44;14.60;67.80
4356;DHT22;64374;51.482;7.408;2023-04-03T15:20:18;14.50;68.80
4356;DHT22;64374;51.482;7.408;2023-04-03T15:22:48;14.50;67.60
4356;DHT22;64374;51.482;7.408;2023-04-03T15:25:16;14.70;68.40
4356;DHT22;64374;51.482;7.408;2023-04-03T15:27:45;14.70;68.70
4356;DHT22;64374;51.482;7.408;2023-04-03T15:30:16;14.50;68.10
4356;DHT22;64374;51.482;7.408;2023-04-03T15:32:44;14.50;69.00
4356;DHT22;64374;51.482;7.408;2023-04-03T15:35:13;14.60;69.50
4356;DHT22;64374;51.482;7.408;2023-04-03T15:37:43;14.90;69.40
4356;DHT22;64374;51.482;7.408;2023-04-03T15:40:11;14.90;70.10
4356;DHT22;64374;51.482;7.408;2023-04-03T15:42:40;15.00;70.30
4356;DHT22;64374;51.482;7.408;2023-04-03T15:45:09;15.20;70.20
4356;DHT22;64374;51.482;7.408;2023-04-03T15:47:41;14.90;68.50
4356;DHT22;64374;51.482;7.408;2023-04-03T15:50:10;14.30;67.90
4356;DHT22;64374;51.482;7.408;2023-04-03T15:52:38;13.90;68.40
4356;DHT22;64374;51.482;7.408;2023-04-03T15:55:08;14.00;68.90
4356;DHT22;64374;51.482;7.408;2023-04-03T15:57:37;14.10;69.40
4356;DHT22;64374;51.482;7.408;2023-04-03T16:00:07;14.10;68.50
4356;DHT22;64374;51.482;7.408;2023-04-03T16:02:36;13.90;68.00
4356;DHT22;64374;51.482;7.408;2023-04-03T16:05:05;13.50;67.50
4356;DHT22;64374;51.482;7.408;2023-04-03T16:07:34;13.20;67.40
4356;DHT22;64374;51.482;7.408;2023-04-03T16:10:02;12.90;68.10
4356;DHT22;64374;51.482;7.408;2023-04-03T16:12:32;12.90;69.10
4356;DHT22;64374;51.482;7.408;2023-04-03T16:15:01;13.00;68.80
4356;DHT22;64374;51.482;7.408;2023-04-03T16:17:31;12.90;69.00
4356;DHT22;64374;51.482;7.408;2023-04-03T16:20:00;12.90;68.50
4356;DHT22;64374;51.482;7.408;2023-04-03T16:22:30;13.00;69.00
4356;DHT22;64374;51.482;7.408;2023-04-03T16:24:59;13.00;68.10
4356;DHT22;64374;51.482;7.408;2023-04-03T16:27:27;12.90;68.30
4356;DHT22;64374;51.482;7.408;2023-04-03T16:29:59;12.80;68.70
4356;DHT22;64374;51.482;7.408;2023-04-03T16:32:31;12.60;69.70
4356;DHT22;64374;51.482;7.408;2023-04-03T16:35:00;12.30;70.10
4356;DHT22;64374;51.482;7.408;2023-04-03T16:37:33;12.10;71.10